sensor_id;sensor_type;location;lat;lon;timestamp;pressure;altitude;pressure_sealevel;temperature;humidity
32330;BME280;18807;52.434;13.238;2023-04-15T00:05:03;100147.28;;;8.24;100.00
32330;BME280;18807;52.434;13.238;2023-04-15T00:12:47;100142.88;;;8.26;100.00
32330;BME280;18807;52.434;13.238;2023-04-15T00:20:46;100134.00;;;8.27;100.00
32330;BME280;18807;52.434;13.238;2023-04-15T00:28:53;100134.91;;;8.28;100.00
32330;BME280;18807;52.434;13.238;2023-04-15T00:36:39;100134.91;;;8.26;100.00
32330;BME280;18807;52.434;13.238;2023-04-15T00:44:17;100130.47;;;8.28;100.00
32330;BME280;18807;52.434;13.238;2023-04-15T00:51:51;100124.28;;;8.28;100.00
32330;BME280;18807;52.434;13.238;2023-04-15T00:59:35;100124.31;;;8.29;100.00
32330;BME280;18807;52.434;13.238;2023-04-15T01:07:16;100123.34;;;8.26;100.00
32330;BME280;18807;52.434;13.238;2023-04-15T01:15:05;100110.06;;;8.26;100.00
32330;BME280;18807;52.434;13.238;2023-04-15T01:22:54;100118.94;;;8.26;100.00
32330;BME280;18807;52.434;13.238;2023-04-15T01:30:35;100114.47;;;8.25;100.00
32330;BME280;18807;52.434;13.238;2023-04-15T01:38:31;100102.94;;;8.23;100.00
32330;BME280;18807;52.434;13.238;2023-04-15T01:46:10;100107.38;;;8.26;100.00
32330;BME280;18807;52.434;13.238;2023-04-15T01:54:20;100108.28;;;8.26;100.00
32330;BME280;18807;52.434;13.238;2023-04-15T02:02:10;100106.47;;;8.25;100.00
32330;BME280;18807;52.434;13.238;2023-04-15T02:09:53;100098.50;;;8.25;100.00
32330;BME280;18807;52.434;13.238;2023-04-15T02:17:46;100091.44;;;8.27;100.00
32330;BME280;18807;52.434;13.238;2023-04-15T02:25:33;100093.19;;;8.27;100.00
32330;BME280;18807;52.434;13.238;2023-04-15T02:33:08;100090.53;;;8.25;100.00
32330;BME280;18807;52.434;13.238;2023-04-15T02:40:58;100085.19;;;8.24;100.00
32330;BME280;18807;52.434;13.238;2023-04-15T02:48:33;100097.63;;;8.25;100.00
32330;BME280;18807;52.434;13.238;2023-04-15T02:56:42;100091.41;;;8.24;100.00
32330;BME280;18807;52.434;13.238;2023-04-15T03:04:17;100100.31;;;8.26;100.00
32330;BME280;18807;52.434;13.238;2023-04-15T03:12:08;100095.00;;;8.26;100.00
32330;BME280;18807;52.434;13.238;2023-04-15T03:19:50;100100.38;;;8.31;100.00
32330;BME280;18807;52.434;13.238;2023-04-15T03:27:37;100099.50;;;8.32;100.00
32330;BME280;18807;52.434;13.238;2023-04-15T03:35:18;100103.06;;;8.32;100.00
32330;BME280;18807;52.434;13.238;2023-04-15T03:42:52;100094.22;;;8.35;100.00
32330;BME280;18807;52.434;13.238;2023-04-15T03:51:05;100097.81;;;8.37;100.00
32330;BME280;18807;52.434;13.238;2023-04-15T03:58:59;100105.81;;;8.40;100.00
32330;BME280;18807;52.434;13.238;2023-04-15T04:06:43;100110.28;;;8.42;100.00
32330;BME280;18807;52.434;13.238;2023-04-15T04:14:26;100105.00;;;8.45;100.00
32330;BME280;18807;52.434;13.238;2023-04-15T04:22:11;100114.78;;;8.49;100.00
32330;BME280;18807;52.434;13.238;2023-04-15T04:29:54;100116.59;;;8.52;100.00
32330;BME280;18807;52.434;13.238;2023-04-15T04:38:01;100115.75;;;8.54;100.00
32330;BME280;18807;52.434;13.238;2023-04-15T04:45:38;100114.00;;;8.58;100.00
32330;BME280;18807;52.434;13.238;2023-04-15T04:53:14;100122.94;;;8.61;100.00
32330;BME280;18807;52.434;13.238;2023-04-15T05:01:19;100123.91;;;8.66;100.00
32330;BME280;18807;52.434;13.238;2023-04-15T05:09:18;100122.16;;;8.70;100.00
32330;BME280;18807;52.434;13.238;2023-04-15T05:16:52;100133.75;;;8.73;100.00
32330;BME280;18807;52.434;13.238;2023-04-15T05:24:34;100133.78;;;8.78;100.00
32330;BME280;18807;52.434;13.238;2023-04-15T05:32:46;100145.34;;;8.81;100.00
32330;BME280;18807;52.434;13.238;2023-04-15T05:40:22;100145.38;;;8.83;100.00
32330;BME280;18807;52.434;13.238;2023-04-15T05:48:01;100146.31;;;8.86;100.00
32330;BME280;18807;52.434;13.238;2023-04-15T05:55:43;100140.16;;;8.92;100.00
32330;BME280;18807;52.434;13.238;2023-04-15T06:03:23;100147.38;;;9.00;100.00
32330;BME280;18807;52.434;13.238;2023-04-15T06:19:44;100141.38;;;9.19;100.00
32330;BME280;18807;52.434;13.238;2023-04-15T06:27:28;100144.91;;;9.21;100.00
32330;BME280;18807;52.434;13.238;2023-04-15T06:35:13;100153.88;;;9.28;100.00
32330;BME280;18807;52.434;13.238;2023-04-15T06:42:53;100163.72;;;9.36;100.00
32330;BME280;18807;52.434;13.238;2023-04-15T06:50:29;100173.63;;;9.45;100.00
32330;BME280;18807;52.434;13.238;2023-04-15T06:58:03;100187.03;;;9.58;100.00
32330;BME280;18807;52.434;13.238;2023-04-15T07:05:38;100196.13;;;9.77;100.00
32330;BME280;18807;52.434;13.238;2023-04-15T07:13:14;100196.22;;;9.86;100.00
32330;BME280;18807;52.434;13.238;2023-04-15T07:20:56;100202.50;;;9.98;100.00
32330;BME280;18807;52.434;13.238;2023-04-15T07:28:53;100215.03;;;10.02;100.00
32330;BME280;18807;52.434;13.238;2023-04-15T07:36:29;100217.72;;;10.04;100.00
32330;BME280;18807;52.434;13.238;2023-04-15T07:44:03;100214.09;;;9.99;100.00
32330;BME280;18807;52.434;13.238;2023-04-15T07:51:47;100223.91;;;10.04;100.00
32330;BME280;18807;52.434;13.238;2023-04-15T07:59:29;100223.09;;;10.07;100.00
32330;BME280;18807;52.434;13.238;2023-04-15T08:07:06;100231.13;;;10.10;100.00
32330;BME280;18807;52.434;13.238;2023-04-15T08:14:55;100240.00;;;10.10;100.00
32330;BME280;18807;52.434;13.238;2023-04-15T08:22:36;100248.91;;;10.09;100.00
32330;BME280;18807;52.434;13.238;2023-04-15T08:30:11;100258.69;;;10.09;100.00
32330;BME280;18807;52.434;13.238;2023-04-15T08:37:52;100264.91;;;10.09;100.00
32330;BME280;18807;52.434;13.238;2023-04-15T08:45:40;100262.19;;;10.05;100.00
32330;BME280;18807;52.434;13.238;2023-04-15T08:53:23;100271.06;;;10.04;100.00
32330;BME280;18807;52.434;13.238;2023-04-15T09:01:05;100279.06;;;10.04;100.00
32330;BME280;18807;52.434;13.238;2023-04-15T09:08:55;100283.50;;;10.03;100.00
32330;BME280;18807;52.434;13.238;2023-04-15T09:17:12;100285.28;;;10.06;100.00
32330;BME280;18807;52.434;13.238;2023-04-15T09:25:33;100285.28;;;10.06;100.00
32330;BME280;18807;52.434;13.238;2023-04-15T09:33:21;100291.59;;;10.08;100.00
32330;BME280;18807;52.434;13.238;2023-04-15T09:41:21;100305.88;;;10.13;100.00
32330;BME280;18807;52.434;13.238;2023-04-15T09:49:23;100305.88;;;10.12;100.00
32330;BME280;18807;52.434;13.238;2023-04-15T09:57:12;100316.53;;;10.12;100.00
32330;BME280;18807;52.434;13.238;2023-04-15T10:04:47;100330.75;;;10.10;100.00
32330;BME280;18807;52.434;13.238;2023-04-15T10:12:30;100323.63;;;10.11;100.00
32330;BME280;18807;52.434;13.238;2023-04-15T10:28:41;100339.69;;;10.16;100.00
32330;BME280;18807;52.434;13.238;2023-04-15T10:36:45;100345.94;;;10.15;100.00
32330;BME280;18807;52.434;13.238;2023-04-15T10:44:21;100343.28;;;10.18;100.00
32330;BME280;18807;52.434;13.238;2023-04-15T10:52:08;100348.69;;;10.25;100.00
32330;BME280;18807;52.434;13.238;2023-04-15T11:00:01;100346.94;;;10.29;100.00
32330;BME280;18807;52.434;13.238;2023-04-15T11:07:51;100361.22;;;10.32;100.00
32330;BME280;18807;52.434;13.238;2023-04-15T11:16:01;100371.91;;;10.35;100.00
32330;BME280;18807;52.434;13.238;2023-04-15T11:23:49;100373.66;;;10.32;100.00
32330;BME280;18807;52.434;13.238;2023-04-15T11:32:07;100378.13;;;10.36;100.00
32330;BME280;18807;52.434;13.238;2023-04-15T11:40:07;100390.66;;;10.40;100.00
32330;BME280;18807;52.434;13.238;2023-04-15T11:48:36;100402.19;;;10.39;100.00
32330;BME280;18807;52.434;13.238;2023-04-15T11:56:26;100403.09;;;10.39;100.00
32330;BME280;18807;52.434;13.238;2023-04-15T12:04:26;100407.56;;;10.43;100.00
32330;BME280;18807;52.434;13.238;2023-04-15T12:12:00;100413.84;;;10.45;100.00
32330;BME280;18807;52.434;13.238;2023-04-15T12:19:42;100420.16;;;10.53;100.00
32330;BME280;18807;52.434;13.238;2023-04-15T12:27:17;100422.88;;;10.59;100.00
32330;BME280;18807;52.434;13.238;2023-04-15T12:34:52;100435.38;;;10.62;100.00
32330;BME280;18807;52.434;13.238;2023-04-15T12:42:59;100448.75;;;10.65;100.00
32330;BME280;18807;52.434;13.238;2023-04-15T12:50:39;100444.31;;;10.70;100.00
32330;BME280;18807;52.434;13.238;2023-04-15T12:58:13;100455.13;;;10.80;100.00
32330;BME280;18807;52.434;13.238;2023-04-15T13:05:51;100457.78;;;10.79;100.00
32330;BME280;18807;52.434;13.238;2023-04-15T13:13:25;100463.16;;;10.85;100.00
32330;BME280;18807;52.434;13.238;2023-04-15T13:21:15;100467.69;;;10.90;100.00
32330;BME280;18807;52.434;13.238;2023-04-15T13:29:12;100469.53;;;10.99;100.00
32330;BME280;18807;52.434;13.238;2023-04-15T13:36:47;100472.22;;;10.99;100.00
32330;BME280;18807;52.434;13.238;2023-04-15T13:44:24;100479.34;;;11.00;100.00
32330;BME280;18807;52.434;13.238;2023-04-15T13:51:59;100488.25;;;10.99;100.00
32330;BME280;18807;52.434;13.238;2023-04-15T13:59:33;100492.66;;;10.95;100.00
32330;BME280;18807;52.434;13.238;2023-04-15T14:07:16;100505.13;;;10.92;100.00
32330;BME280;18807;52.434;13.238;2023-04-15T14:15:05;100510.50;;;10.95;100.00
32330;BME280;18807;52.434;13.238;2023-04-15T14:22:46;100528.31;;;10.96;100.00
32330;BME280;18807;52.434;13.238;2023-04-15T14:30:36;100524.66;;;10.89;100.00
32330;BME280;18807;52.434;13.238;2023-04-15T14:38:28;100539.78;;;10.84;100.00
32330;BME280;18807;52.434;13.238;2023-04-15T14:46:02;100553.16;;;10.86;100.00
32330;BME280;18807;52.434;13.238;2023-04-15T14:54:00;100555.81;;;10.84;100.00
32330;BME280;18807;52.434;13.238;2023-04-15T15:01:38;100571.88;;;10.87;100.00
32330;BME280;18807;52.434;13.238;2023-04-15T15:09:17;100578.00;;;10.80;100.00
32330;BME280;18807;52.434;13.238;2023-04-15T15:17:09;100576.22;;;10.79;100.00
32330;BME280;18807;52.434;13.238;2023-04-15T15:24:45;100586.91;;;10.79;100.00
32330;BME280;18807;52.434;13.238;2023-04-15T15:32:22;100594.00;;;10.77;100.00
32330;BME280;18807;52.434;13.238;2023-04-15T15:40:13;100602.84;;;10.72;100.00
32330;BME280;18807;52.434;13.238;2023-04-15T15:48:06;100604.63;;;10.73;100.00
32330;BME280;18807;52.434;13.238;2023-04-15T15:55:47;100615.31;;;10.73;100.00
32330;BME280;18807;52.434;13.238;2023-04-15T16:03:29;100626.91;;;10.73;100.00
32330;BME280;18807;52.434;13.238;2023-04-15T16:11:28;100629.56;;;10.72;100.00
32330;BME280;18807;52.434;13.238;2023-04-15T16:19:02;100638.47;;;10.71;100.00
32330;BME280;18807;52.434;13.238;2023-04-15T16:26:39;100632.22;;;10.70;100.00
32330;BME280;18807;52.434;13.238;2023-04-15T16:34:45;100642.00;;;10.70;100.00
32330;BME280;18807;52.434;13.238;2023-04-15T16:42:33;100653.56;;;10.69;100.00
32330;BME280;18807;52.434;13.238;2023-04-15T16:50:22;100653.50;;;10.64;100.00
32330;BME280;18807;52.434;13.238;2023-04-15T16:58:12;100668.63;;;10.64;100.00
32330;BME280;18807;52.434;13.238;2023-04-15T17:05:52;100673.09;;;10.63;100.00
32330;BME280;18807;52.434;13.238;2023-04-15T17:13:34;100687.34;;;10.65;100.00
32330;BME280;18807;52.434;13.238;2023-04-15T17:21:17;100694.47;;;10.63;100.00
32330;BME280;18807;52.434;13.238;2023-04-15T17:28:52;100710.50;;;10.63;100.00
32330;BME280;18807;52.434;13.238;2023-04-15T17:36:38;100704.19;;;10.60;100.00
32330;BME280;18807;52.434;13.238;2023-04-15T17:44:27;100724.69;;;10.59;100.00
32330;BME280;18807;52.434;13.238;2023-04-15T17:52:01;100721.94;;;10.55;100.00
32330;BME280;18807;52.434;13.238;2023-04-15T18:07:56;100751.31;;;10.55;100.00
32330;BME280;18807;52.434;13.238;2023-04-15T18:15:52;100765.56;;;10.57;100.00
32330;BME280;18807;52.434;13.238;2023-04-15T18:23:47;100772.69;;;10.55;100.00
32330;BME280;18807;52.434;13.238;2023-04-15T18:31:21;100784.22;;;10.54;100.00
32330;BME280;18807;52.434;13.238;2023-04-15T18:39:05;100794.88;;;10.52;100.00
32330;BME280;18807;52.434;13.238;2023-04-15T18:47:11;100802.81;;;10.48;100.00
32330;BME280;18807;52.434;13.238;2023-04-15T18:54:46;100808.13;;;10.46;100.00
32330;BME280;18807;52.434;13.238;2023-04-15T19:02:40;100824.38;;;10.60;100.00
32330;BME280;18807;52.434;13.238;2023-04-15T19:10:57;100820.72;;;10.52;100.00
32330;BME280;18807;52.434;13.238;2023-04-15T19:19:34;100834.94;;;10.52;100.00
32330;BME280;18807;52.434;13.238;2023-04-15T19:27:30;100844.69;;;10.49;100.00
32330;BME280;18807;52.434;13.238;2023-04-15T19:44:30;100863.34;;;10.46;100.00
32330;BME280;18807;52.434;13.238;2023-04-15T19:52:24;100856.19;;;10.45;100.00
32330;BME280;18807;52.434;13.238;2023-04-15T20:00:33;100864.19;;;10.45;100.00
32330;BME280;18807;52.434;13.238;2023-04-15T20:08:38;100862.31;;;10.39;100.00
32330;BME280;18807;52.434;13.238;2023-04-15T20:16:26;100862.31;;;10.38;100.00
32330;BME280;18807;52.434;13.238;2023-04-15T20:24:02;100864.94;;;10.36;100.00
32330;BME280;18807;52.434;13.238;2023-04-15T20:40:22;100881.72;;;10.28;100.00
32330;BME280;18807;52.434;13.238;2023-04-15T20:48:07;100877.25;;;10.27;100.00
32330;BME280;18807;52.434;13.238;2023-04-15T20:56:10;100889.69;;;10.26;100.00
32330;BME280;18807;52.434;13.238;2023-04-15T21:03:50;100887.03;;;10.28;100.00
32330;BME280;18807;52.434;13.238;2023-04-15T21:11:34;100895.88;;;10.24;100.00
32330;BME280;18807;52.434;13.238;2023-04-15T21:19:27;100905.69;;;10.25;100.00
32330;BME280;18807;52.434;13.238;2023-04-15T21:27:33;100918.97;;;10.22;100.00
32330;BME280;18807;52.434;13.238;2023-04-15T21:35:08;100928.72;;;10.21;100.00
32330;BME280;18807;52.434;13.238;2023-04-15T21:43:13;100932.34;;;10.23;100.00
32330;BME280;18807;52.434;13.238;2023-04-15T21:50:48;100940.25;;;10.19;100.00
32330;BME280;18807;52.434;13.238;2023-04-15T21:58:38;100941.25;;;10.22;100.00
32330;BME280;18807;52.434;13.238;2023-04-15T22:06:44;100955.41;;;10.20;100.00
32330;BME280;18807;52.434;13.238;2023-04-15T22:14:56;100965.22;;;10.21;100.00
32330;BME280;18807;52.434;13.238;2023-04-15T22:22:30;100974.16;;;10.23;100.00
32330;BME280;18807;52.434;13.238;2023-04-15T22:30:24;100986.59;;;10.21;100.00
32330;BME280;18807;52.434;13.238;2023-04-15T22:38:10;100993.63;;;10.17;100.00
32330;BME280;18807;52.434;13.238;2023-04-15T22:53:50;101001.56;;;10.14;100.00
32330;BME280;18807;52.434;13.238;2023-04-15T23:01:40;101008.66;;;10.13;100.00
32330;BME280;18807;52.434;13.238;2023-04-15T23:09:19;101013.97;;;10.12;100.00
32330;BME280;18807;52.434;13.238;2023-04-15T23:17:07;101019.28;;;10.10;100.00
32330;BME280;18807;52.434;13.238;2023-04-15T23:25:06;101021.88;;;10.07;100.00
32330;BME280;18807;52.434;13.238;2023-04-15T23:32:43;101027.16;;;10.06;100.00
32330;BME280;18807;52.434;13.238;2023-04-15T23:40:36;101028.94;;;10.05;100.00
32330;BME280;18807;52.434;13.238;2023-04-15T23:48:22;101032.38;;;10.01;100.00
32330;BME280;18807;52.434;13.238;2023-04-15T23:56:04;101032.31;;;9.98;100.00
